Terminal Aerodrome Forecast
Issued by NWS

Home | Current Version | Previous Version | Text Only | Print | Product List | Glossary On
Versions: 1 2 3 4 5 6 7 8 9 10 11 12 13 14 15 16 17 18 19 20 21 22
000
FTUS43 KDLH 260115 AAA
TAFBRD
TAF AMD
KBRD 260115Z 2601/2624 15010KT P6SM VCSH BKN035
     FM260800 16006KT P6SM VCSH OVC030
     FM261300 18005KT P6SM VCSH SCT012 OVC035
     FM261800 21009KT P6SM BKN050
     FM262200 24008KT P6SM SCT250=

USA.gov is the U.S. government's official web portal to all federal, state and local government web resources and services.